createdAt,value
2019-04-11T00:01:19.827Z,47.79
2019-04-11T00:03:51.451Z,47.92
2019-04-11T00:06:41.674Z,47.92
2019-04-11T00:09:16.689Z,47.67
2019-04-11T00:11:48.269Z,47.35
2019-04-11T00:14:20.013Z,47.71
2019-04-11T00:16:51.051Z,47.78
2019-04-11T00:19:23.147Z,47.98
2019-04-11T00:21:55.502Z,47.69
2019-04-11T00:24:27.128Z,47.75
2019-04-11T00:26:58.469Z,47.58
2019-04-11T00:29:30.284Z,47.88
2019-04-11T00:32:01.367Z,47.77
2019-04-11T00:34:33.119Z,48.27
2019-04-11T00:37:05.138Z,47.75
2019-04-11T00:39:37.559Z,48.07
2019-04-11T00:42:08.938Z,48.38
2019-04-11T00:44:41.156Z,48.54
2019-04-11T00:47:13.088Z,48.26
2019-04-11T00:49:44.132Z,48.13
2019-04-11T00:52:16.241Z,48.30
2019-04-11T00:54:47.327Z,48.83
2019-04-11T00:57:18.958Z,48.41
2019-04-11T00:59:50.912Z,48.24
2019-04-11T01:02:23.150Z,48.50
2019-04-11T01:04:54.251Z,48.03
2019-04-11T01:07:25.426Z,47.86
2019-04-11T01:09:56.878Z,47.98
2019-04-11T01:12:28.917Z,48.68
2019-04-11T01:14:59.972Z,48.49
2019-04-11T01:17:31.588Z,48.51
2019-04-11T01:20:02.928Z,48.51
2019-04-11T01:22:34.276Z,48.74
2019-04-11T01:25:06.312Z,48.55
2019-04-11T01:27:39.344Z,48.36
2019-04-11T01:30:13.795Z,47.82
2019-04-11T01:32:44.999Z,47.86
2019-04-11T01:35:17.194Z,48.31
2019-04-11T01:37:48.317Z,47.93
2019-04-11T01:40:19.964Z,48.10
2019-04-11T01:42:51.342Z,48.32
2019-04-11T01:45:25.340Z,48.51
2019-04-11T01:48:05.587Z,48.28
2019-04-11T01:50:37.409Z,48.55
2019-04-11T01:53:09.275Z,48.86
2019-04-11T01:55:40.840Z,48.80
2019-04-11T01:58:11.973Z,48.69
2019-04-11T02:01:01.968Z,49.06
2019-04-11T02:03:41.406Z,49.34
2019-04-11T02:06:13.821Z,49.20
2019-04-11T02:08:44.840Z,49.47
2019-04-11T02:11:17.128Z,49.10
2019-04-11T02:13:48.263Z,48.95
2019-04-11T02:16:19.376Z,49.08
2019-04-11T02:18:50.342Z,49.13
2019-04-11T02:21:21.906Z,49.00
2019-04-11T02:23:59.431Z,49.02
2019-04-11T02:26:33.579Z,49.14
2019-04-11T02:29:05.547Z,48.67
2019-04-11T02:31:38.872Z,49.12
2019-04-11T02:34:11.471Z,48.92
2019-04-11T02:36:43.049Z,48.88
2019-04-11T02:39:19.257Z,49.29
2019-04-11T02:41:50.623Z,49.35
2019-04-11T02:44:39.591Z,49.19
2019-04-11T02:47:01.818Z,49.24
2019-04-11T02:49:27.937Z,49.17
2019-04-11T02:52:00.833Z,49.31
2019-04-11T02:54:33.809Z,49.19
2019-04-11T02:57:05.779Z,49.01
2019-04-11T02:59:38.907Z,49.42
2019-04-11T03:02:13.101Z,49.61
2019-04-11T03:04:43.934Z,49.40
2019-04-11T03:07:16.563Z,49.36
2019-04-11T03:09:48.819Z,49.27
2019-04-11T03:12:21.681Z,49.29
2019-04-11T03:15:09.311Z,49.16
2019-04-11T03:17:32.900Z,48.87
2019-04-11T03:20:10.464Z,49.21
2019-04-11T03:22:32.289Z,49.40
2019-04-11T03:25:06.053Z,49.45
2019-04-11T03:27:38.471Z,49.51
2019-04-11T03:30:15.129Z,49.58
2019-04-11T03:38:17.364Z,49.93
2019-04-11T03:40:43.212Z,50.04
2019-04-11T03:43:09.369Z,49.66
2019-04-11T03:45:51.381Z,49.42
2019-04-11T03:48:20.467Z,49.75
2019-04-11T03:50:37.129Z,49.84
2019-04-11T03:53:10.944Z,49.83
2019-04-11T03:55:43.236Z,49.87
2019-04-11T03:58:15.400Z,49.80
2019-04-11T04:00:49.613Z,49.45
2019-04-11T04:03:20.289Z,49.63
2019-04-11T04:05:52.839Z,49.56
2019-04-11T04:08:25.193Z,49.87
2019-04-11T04:11:22.251Z,49.67
2019-04-11T04:14:12.641Z,49.93
2019-04-11T04:17:03.831Z,49.68
2019-04-11T04:19:47.612Z,50.05
2019-04-11T04:22:29.257Z,49.97
2019-04-11T04:25:03.775Z,50.05
2019-04-11T04:27:35.318Z,49.89
2019-04-11T04:30:08.595Z,49.90
2019-04-11T04:32:40.612Z,49.76
2019-04-11T04:35:16.806Z,49.51
2019-04-11T04:37:45.395Z,49.68
2019-04-11T04:40:31.421Z,50.13
2019-04-11T04:42:55.307Z,50.08
2019-04-11T04:45:24.337Z,50.38
2019-04-11T04:48:02.577Z,50.20
2019-04-11T04:50:28.683Z,50.40
2019-04-11T04:53:02.580Z,50.11
2019-04-11T04:55:34.630Z,50.17
2019-04-11T04:58:07.240Z,49.95
2019-04-11T05:00:40.283Z,50.52
2019-04-11T05:03:11.399Z,50.33
2019-04-11T05:05:44.257Z,50.24
2019-04-11T05:08:16.539Z,50.09
2019-04-11T05:10:49.056Z,50.08
2019-04-11T05:13:21.686Z,50.00
2019-04-11T05:16:04.458Z,50.05
2019-04-11T05:18:25.904Z,50.25
2019-04-11T05:20:58.724Z,50.26
2019-04-11T05:23:29.939Z,50.40
2019-04-11T05:26:01.656Z,50.35
2019-04-11T05:28:32.678Z,50.54
2019-04-11T05:31:03.728Z,50.53
2019-04-11T05:33:35.060Z,50.20
2019-04-11T05:36:06.109Z,50.09
2019-04-11T05:38:38.305Z,50.24
2019-04-11T05:41:12.267Z,50.47
2019-04-11T05:43:43.369Z,50.80
2019-04-11T05:46:26.407Z,50.71
2019-04-11T05:49:02.288Z,50.42
2019-04-11T05:51:42.615Z,50.32
2019-04-11T05:54:08.029Z,50.46
2019-04-11T05:56:41.432Z,51.21
2019-04-11T05:59:19.799Z,51.55
2019-04-11T06:02:03.245Z,51.63
2019-04-11T06:04:38.034Z,51.13
2019-04-11T06:07:25.335Z,51.57
2019-04-11T06:10:00.733Z,51.26
2019-04-11T06:12:50.600Z,51.51
2019-04-11T06:15:27.028Z,51.73
2019-04-11T06:17:58.677Z,51.23
2019-04-11T06:20:57.899Z,51.02
2019-04-11T06:23:47.637Z,50.96
2019-04-11T06:26:41.409Z,50.74
2019-04-11T06:29:31.603Z,51.14
2019-04-11T06:32:30.366Z,50.86
2019-04-11T06:35:06.168Z,50.69
2019-04-11T06:37:58.295Z,51.21
2019-04-11T06:40:37.703Z,50.81
2019-04-11T06:43:29.352Z,50.80
2019-04-11T06:46:18.793Z,51.11
2019-04-11T06:48:58.196Z,50.71
2019-04-11T06:51:37.818Z,50.38
2019-04-11T06:54:16.922Z,50.48
2019-04-11T06:56:51.036Z,50.23
2019-04-11T06:59:33.080Z,50.17
2019-04-11T07:02:16.483Z,50.22
2019-04-11T07:05:02.542Z,50.87
2019-04-11T07:07:35.982Z,50.54
2019-04-11T07:10:09.533Z,50.79
2019-04-11T07:12:43.821Z,50.98
2019-04-11T07:15:29.399Z,49.69
2019-04-11T07:18:18.354Z,50.04
2019-04-11T07:21:03.745Z,49.56
2019-04-11T07:23:53.405Z,50.69
2019-04-11T07:26:43.824Z,50.32
2019-04-11T07:29:40.116Z,49.92
2019-04-11T07:32:20.050Z,49.33
2019-04-11T07:35:08.807Z,49.51
2019-04-11T07:37:41.237Z,49.13
2019-04-11T07:40:33.318Z,48.97
2019-04-11T07:43:25.297Z,47.94
2019-04-11T07:46:14.977Z,49.29
2019-04-11T07:48:46.907Z,48.37
2019-04-11T07:51:36.422Z,48.02
2019-04-11T07:54:10.183Z,47.21
2019-04-11T07:57:04.189Z,47.74
2019-04-11T07:59:55.571Z,47.10
2019-04-11T08:02:49.044Z,46.31
2019-04-11T08:05:41.080Z,47.54
2019-04-11T08:08:34.592Z,47.17
2019-04-11T08:11:13.885Z,47.02
2019-04-11T08:13:58.591Z,47.05
2019-04-11T08:17:03.899Z,46.81
2019-04-11T08:20:05.006Z,46.95
2019-04-11T08:22:39.175Z,46.64
2019-04-11T08:25:25.265Z,46.70
2019-04-11T08:28:02.235Z,45.54
2019-04-11T08:31:13.167Z,45.93
2019-04-11T08:33:44.704Z,46.57
2019-04-11T08:36:33.764Z,45.72
2019-04-11T08:39:11.208Z,46.31
2019-04-11T08:42:01.063Z,45.61
2019-04-11T08:44:39.567Z,45.39
2019-04-11T08:47:20.401Z,46.63
2019-04-11T08:49:54.152Z,46.28
2019-04-11T08:52:40.377Z,46.49
2019-04-11T08:55:17.246Z,46.27
2019-04-11T08:57:58.853Z,46.62
2019-04-11T09:00:38.067Z,46.06
2019-04-11T09:03:35.702Z,44.99
2019-04-11T09:06:09.328Z,45.72
2019-04-11T09:08:59.706Z,46.01
2019-04-11T09:11:47.044Z,46.16
2019-04-11T09:14:36.003Z,45.91
2019-04-11T09:17:30.220Z,45.99
2019-04-11T09:20:21.404Z,44.42
2019-04-11T09:23:03.825Z,44.62
2019-04-11T09:25:53.250Z,45.04
2019-04-11T09:28:33.432Z,46.76
2019-04-11T09:31:42.119Z,45.42
2019-04-11T09:34:39.741Z,45.07
2019-04-11T09:37:36.076Z,43.66
2019-04-11T09:40:34.441Z,43.79
2019-04-11T09:43:13.071Z,43.66
2019-04-11T09:45:56.198Z,44.48
2019-04-11T09:48:44.546Z,44.39
2019-04-11T09:51:29.480Z,45.40
2019-04-11T09:54:08.696Z,45.14
2019-04-11T09:57:00.224Z,44.75
2019-04-11T09:59:42.799Z,45.67
2019-04-11T10:02:38.166Z,43.00
2019-04-11T10:05:11.677Z,42.52
2019-04-11T10:08:02.173Z,41.95
2019-04-11T10:10:53.275Z,41.74
2019-04-11T10:13:42.778Z,42.83
2019-04-11T10:16:31.810Z,42.86
2019-04-11T10:19:24.807Z,42.81
2019-04-11T10:22:04.853Z,42.46
2019-04-11T10:24:54.764Z,44.39
2019-04-11T10:27:36.419Z,41.91
2019-04-11T10:30:39.916Z,41.82
2019-04-11T10:33:24.732Z,42.01
2019-04-11T10:36:14.659Z,44.01
2019-04-11T10:38:46.809Z,43.23
2019-04-11T10:41:30.655Z,43.10
2019-04-11T10:44:02.428Z,43.55
2019-04-11T10:46:52.719Z,43.07
2019-04-11T10:49:48.903Z,43.52
2019-04-11T10:52:28.907Z,42.01
2019-04-11T10:55:06.109Z,42.62
2019-04-11T10:57:42.435Z,43.02
2019-04-11T11:00:39.643Z,41.55
2019-04-11T11:03:18.203Z,43.27
2019-04-11T11:05:51.988Z,42.00
2019-04-11T11:08:37.711Z,41.21
2019-04-11T11:11:17.540Z,40.41
2019-04-11T11:14:02.755Z,41.19
2019-04-11T11:16:42.870Z,42.71
2019-04-11T11:19:45.765Z,41.64
2019-04-11T11:22:23.637Z,41.71
2019-04-11T11:25:24.894Z,42.56
2019-04-11T11:27:56.356Z,41.28
2019-04-11T11:30:44.694Z,40.92
2019-04-11T11:33:18.158Z,42.06
2019-04-11T11:36:17.763Z,39.74
2019-04-11T11:39:07.008Z,39.87
2019-04-11T11:42:02.073Z,41.95
2019-04-11T11:44:39.760Z,40.25
2019-04-11T11:47:33.047Z,39.99
2019-04-11T11:50:04.422Z,40.32
2019-04-11T11:52:54.189Z,40.78
2019-04-11T11:55:29.465Z,39.73
2019-04-11T11:58:19.871Z,39.58
2019-04-11T12:00:53.873Z,40.18
2019-04-11T12:04:03.431Z,39.41
2019-04-11T12:06:35.456Z,39.67
2019-04-11T12:09:39.413Z,38.13
2019-04-11T12:12:15.746Z,39.05
2019-04-11T12:15:06.187Z,39.31
2019-04-11T12:18:18.075Z,38.98
2019-04-11T12:20:56.310Z,41.02
2019-04-11T12:23:49.544Z,42.41
2019-04-11T12:26:14.212Z,40.77
2019-04-11T12:29:03.976Z,39.26
2019-04-11T12:31:37.135Z,39.35
2019-04-11T12:34:26.107Z,39.66
2019-04-11T12:36:58.533Z,38.27
2019-04-11T12:39:48.490Z,38.56
2019-04-11T12:42:22.739Z,38.76
2019-04-11T12:45:15.697Z,38.60
2019-04-11T12:47:55.630Z,39.64
2019-04-11T12:50:44.707Z,37.93
2019-04-11T12:53:26.636Z,38.27
2019-04-11T12:56:17.342Z,38.58
2019-04-11T12:58:50.780Z,38.25
2019-04-11T13:01:39.429Z,38.35
2019-04-11T13:04:25.774Z,39.05
2019-04-11T13:07:34.059Z,38.91
2019-04-11T13:10:24.547Z,38.99
2019-04-11T13:13:20.701Z,38.95
2019-04-11T13:16:12.188Z,38.69
2019-04-11T13:19:02.869Z,38.77
2019-04-11T13:21:44.462Z,38.54
2019-04-11T13:24:33.354Z,38.08
2019-04-11T13:27:32.808Z,37.72
2019-04-11T13:30:23.698Z,37.30
2019-04-11T13:32:58.599Z,39.94
2019-04-11T13:36:03.556Z,38.85
2019-04-11T13:38:51.673Z,38.33
2019-04-11T13:41:42.340Z,37.80
2019-04-11T13:44:31.036Z,37.37
2019-04-11T13:47:34.058Z,39.06
2019-04-11T13:50:16.270Z,38.22
2019-04-11T13:52:57.299Z,37.33
2019-04-11T13:55:35.314Z,37.83
2019-04-11T13:58:34.487Z,37.12
2019-04-11T14:01:11.979Z,37.40
2019-04-11T14:04:01.965Z,36.53
2019-04-11T14:06:34.196Z,36.98
2019-04-11T14:09:37.800Z,36.91
2019-04-11T14:12:14.393Z,36.09
2019-04-11T14:15:11.701Z,36.61
2019-04-11T14:18:05.106Z,37.41
2019-04-11T14:20:42.061Z,36.43
2019-04-11T14:23:34.631Z,35.96
2019-04-11T14:26:24.440Z,36.35
2019-04-11T14:28:59.677Z,36.10
2019-04-11T14:31:53.822Z,35.27
2019-04-11T14:34:47.610Z,36.44
2019-04-11T14:37:46.190Z,36.27
2019-04-11T14:41:01.454Z,36.26
2019-04-11T14:43:29.818Z,36.07
2019-04-11T14:46:22.916Z,37.54
2019-04-11T14:49:05.724Z,37.38
2019-04-11T14:51:59.042Z,35.79
2019-04-11T14:54:50.354Z,35.26
2019-04-11T14:57:55.664Z,36.96
2019-04-11T15:00:30.545Z,36.01
2019-04-11T15:03:32.930Z,35.95
2019-04-11T15:06:18.663Z,35.81
2019-04-11T15:09:03.990Z,35.67
2019-04-11T15:11:57.204Z,36.25
2019-04-11T15:14:59.887Z,36.45
2019-04-11T15:17:33.453Z,36.35
2019-04-11T15:20:37.476Z,35.43
2019-04-11T15:23:12.256Z,35.18
2019-04-11T15:26:09.808Z,35.05
2019-04-11T15:28:59.046Z,35.59
2019-04-11T15:31:39.456Z,35.61
2019-04-11T15:34:19.876Z,36.15
2019-04-11T15:37:16.060Z,36.38
2019-04-11T15:40:24.396Z,35.78
2019-04-11T15:43:24.491Z,35.90
2019-04-11T15:46:01.417Z,35.70
2019-04-11T15:49:00.372Z,36.43
2019-04-11T15:51:37.295Z,37.08
2019-04-11T15:54:28.293Z,36.26
2019-04-11T15:57:12.641Z,35.74
2019-04-11T16:00:07.402Z,35.95
2019-04-11T16:03:00.130Z,36.28
2019-04-11T16:05:50.249Z,36.05
2019-04-11T16:08:43.922Z,36.06
2019-04-11T16:11:34.105Z,36.01
2019-04-11T16:14:25.460Z,35.96
2019-04-11T16:17:14.728Z,36.70
2019-04-11T16:19:50.683Z,35.61
2019-04-11T16:22:54.895Z,36.09
2019-04-11T16:25:23.754Z,36.05
2019-04-11T16:28:19.529Z,35.86
2019-04-11T16:30:52.611Z,35.90
2019-04-11T16:33:35.912Z,36.55
2019-04-11T16:36:29.056Z,36.22
2019-04-11T16:39:28.045Z,36.26
2019-04-11T16:42:10.808Z,36.16
2019-04-11T16:45:07.227Z,36.05
2019-04-11T16:48:06.263Z,35.99
2019-04-11T16:50:37.658Z,36.14
2019-04-11T16:53:11.645Z,36.12
2019-04-11T16:55:43.659Z,35.78
2019-04-11T16:58:19.285Z,35.80
2019-04-11T17:00:52.185Z,36.27
2019-04-11T17:03:24.744Z,36.54
2019-04-11T17:05:59.542Z,36.58
2019-04-11T17:08:47.432Z,36.45
2019-04-11T17:11:20.108Z,36.32
2019-04-11T17:13:51.588Z,36.51
2019-04-11T17:16:22.909Z,36.65
2019-04-11T17:18:53.982Z,37.13
2019-04-11T17:21:25.503Z,36.66
2019-04-11T17:23:56.928Z,36.92
2019-04-11T17:26:27.996Z,37.15
2019-04-11T17:28:59.116Z,36.37
2019-04-11T17:31:30.482Z,36.33
2019-04-11T17:34:02.781Z,36.62
2019-04-11T17:36:34.878Z,36.61
2019-04-11T17:39:08.109Z,36.84
2019-04-11T17:41:41.784Z,37.01
2019-04-11T17:44:12.445Z,36.91
2019-04-11T17:46:50.158Z,37.30
2019-04-11T17:49:21.506Z,37.15
2019-04-11T17:51:56.030Z,37.23
2019-04-11T17:54:25.754Z,37.24
2019-04-11T17:56:58.995Z,37.43
2019-04-11T17:59:29.733Z,37.46
2019-04-11T18:02:00.936Z,37.24
2019-04-11T18:04:32.356Z,37.11
2019-04-11T18:07:04.022Z,37.27
2019-04-11T18:09:35.417Z,36.61
2019-04-11T18:12:07.129Z,36.74
2019-04-11T18:14:42.296Z,36.73
2019-04-11T18:17:16.308Z,37.22
2019-04-11T18:19:54.436Z,37.10
2019-04-11T18:22:27.610Z,37.02
2019-04-11T18:24:59.549Z,36.76
2019-04-11T18:27:34.305Z,37.21
2019-04-11T18:30:09.380Z,37.32
2019-04-11T18:32:41.088Z,37.30
2019-04-11T18:35:12.736Z,37.07
2019-04-11T18:37:49.212Z,37.37
2019-04-11T18:40:20.379Z,36.98
2019-04-11T18:42:51.497Z,37.17
2019-04-11T18:45:22.620Z,36.93
2019-04-11T18:47:54.269Z,37.10
2019-04-11T18:50:25.420Z,37.06
2019-04-11T18:52:59.540Z,37.02
2019-04-11T18:55:30.379Z,37.22
2019-04-11T18:58:04.002Z,36.98
2019-04-11T19:00:38.939Z,37.00
2019-04-11T19:03:10.885Z,37.02
2019-04-11T19:05:42.979Z,36.92
2019-04-11T19:08:15.536Z,36.78
2019-04-11T19:10:49.051Z,36.65
2019-04-11T19:13:20.152Z,36.75
2019-04-11T19:15:51.350Z,37.27
2019-04-11T19:18:22.897Z,37.05
2019-04-11T19:20:53.997Z,37.26
2019-04-11T19:23:25.122Z,36.90
2019-04-11T19:25:56.191Z,37.18
2019-04-11T19:28:27.494Z,37.12
2019-04-11T19:30:58.642Z,37.31
2019-04-11T19:33:33.997Z,37.33
2019-04-11T19:36:02.872Z,37.52
2019-04-11T19:38:35.714Z,37.68
2019-04-11T19:41:06.847Z,37.38
2019-04-11T19:43:40.566Z,37.60
2019-04-11T19:46:10.744Z,37.99
2019-04-11T19:48:47.878Z,37.91
2019-04-11T19:51:18.975Z,37.77
2019-04-11T19:53:50.007Z,38.23
2019-04-11T19:56:45.219Z,38.07
2019-04-11T19:59:16.379Z,37.99
2019-04-11T20:01:50.802Z,38.03
2019-04-11T20:04:24.015Z,38.28
2019-04-11T20:06:55.960Z,38.16
2019-04-11T20:09:30.678Z,38.46
2019-04-11T20:12:05.487Z,38.41
2019-04-11T20:14:36.864Z,38.67
2019-04-11T20:17:09.228Z,38.43
2019-04-11T20:19:41.206Z,38.55
2019-04-11T20:22:12.242Z,38.77
2019-04-11T20:24:46.745Z,38.77
2019-04-11T20:27:20.034Z,38.41
2019-04-11T20:29:53.138Z,38.66
2019-04-11T20:32:23.583Z,38.56
2019-04-11T20:34:54.739Z,38.36
2019-04-11T20:37:26.244Z,38.61
2019-04-11T20:39:57.462Z,38.73
2019-04-11T20:42:33.957Z,38.58
2019-04-11T20:45:05.656Z,38.66
2019-04-11T20:47:37.277Z,38.60
2019-04-11T20:50:10.449Z,38.79
2019-04-11T20:52:51.265Z,38.56
2019-04-11T20:55:22.718Z,39.02
2019-04-11T20:57:54.003Z,38.86
2019-04-11T21:00:25.470Z,38.73
2019-04-11T21:02:58.389Z,38.85
2019-04-11T21:05:30.930Z,38.91
2019-04-11T21:08:02.953Z,38.77
2019-04-11T21:10:34.888Z,38.89
2019-04-11T21:13:11.619Z,38.95
2019-04-11T21:15:42.707Z,39.20
2019-04-11T21:18:15.747Z,39.07
2019-04-11T21:20:55.052Z,39.18
2019-04-11T21:23:24.756Z,39.42
2019-04-11T21:25:58.850Z,39.51
2019-04-11T21:28:30.330Z,39.48
2019-04-11T21:31:02.052Z,39.84
2019-04-11T21:33:35.042Z,39.83
2019-04-11T21:36:07.383Z,39.70
2019-04-11T21:38:38.529Z,40.21
2019-04-11T21:41:10.649Z,40.16
2019-04-11T21:43:41.738Z,40.32
2019-04-11T21:46:12.807Z,40.31
2019-04-11T21:48:44.319Z,40.27
2019-04-11T21:51:15.518Z,40.84
2019-04-11T21:53:46.597Z,40.90
2019-04-11T21:56:18.653Z,40.58
2019-04-11T21:58:50.798Z,40.62
2019-04-11T22:01:25.583Z,40.72
2019-04-11T22:03:57.842Z,41.28
2019-04-11T22:06:30.467Z,41.40
2019-04-11T22:09:04.829Z,41.22
2019-04-11T22:11:38.363Z,41.27
2019-04-11T22:14:11.300Z,41.34
2019-04-11T22:16:45.153Z,41.15
2019-04-11T22:19:16.876Z,41.48
2019-04-11T22:21:48.050Z,41.87
2019-04-11T22:24:19.065Z,41.99
2019-04-11T22:26:51.160Z,42.01
2019-04-11T22:29:24.845Z,41.92
2019-04-11T22:31:56.576Z,42.09
2019-04-11T22:34:35.380Z,42.42
2019-04-11T22:37:06.735Z,42.47
2019-04-11T22:39:37.766Z,42.94
2019-04-11T22:42:09.080Z,42.78
2019-04-11T22:44:40.130Z,42.98
2019-04-11T22:47:11.584Z,42.95
2019-04-11T22:49:43.095Z,43.18
2019-04-11T22:52:14.361Z,43.64
2019-04-11T22:54:45.413Z,43.47
2019-04-11T22:57:16.738Z,43.60
2019-04-11T22:59:47.842Z,43.57
2019-04-11T23:02:26.660Z,43.88
2019-04-11T23:04:57.813Z,43.72
2019-04-11T23:07:29.485Z,43.73
2019-04-11T23:10:00.517Z,43.92
2019-04-11T23:12:33.063Z,43.83
2019-04-11T23:15:04.261Z,44.05
2019-04-11T23:17:37.885Z,44.18
2019-04-11T23:20:11.862Z,44.35
2019-04-11T23:22:44.467Z,44.54
2019-04-11T23:25:15.486Z,44.87
2019-04-11T23:27:46.599Z,44.89
2019-04-11T23:30:24.353Z,45.08
2019-04-11T23:32:55.461Z,45.13
2019-04-11T23:35:26.753Z,45.47
2019-04-11T23:37:58.026Z,45.55
2019-04-11T23:40:29.306Z,45.33
2019-04-11T23:43:00.322Z,45.59
2019-04-11T23:45:33.097Z,45.29
2019-04-11T23:48:05.740Z,45.67
2019-04-11T23:50:37.037Z,45.54
2019-04-11T23:53:08.135Z,45.63
2019-04-11T23:55:39.233Z,45.47
2019-04-11T23:58:10.527Z,45.59
